Tiempo atmosférico en la estación meteorológica de Anaga, Santa Cruz de Tenerife (19 m.)



Fecha
DESCASC
Temp. máxima en grados centígrados (hora)
DESCASC
Temp. mínima en grados centígrados (hora)
DESCASC
Temp. media en grados centígrados
DESCASC
Racha de viento máxima en m/sg (hora)
DESCASC
Velocidad máxima media en intervalos de 10 minutos(hora)
DESCASC
Precipitaciones diarias en mm
DESCASC
Precipitaciones de 00:00 a 06:00 en mm
DESCASC
Precipitaciones de 06:00 a 12:00 en mm
DESCASC
Precipitaciones de 12:00 a 18:00 en mm
DESCASC
Precipitaciones de 18:00 a 24:00 en mm
DESCASC
16-06-2019 24 (16:10) 16.1 (07:40) 20.1 5.56 (12:30) 2.78 (13:10) 0 0 0 0 0
15-06-2019 23.3 (15:50) 17.3 (03:00) 20.3 8.33 (17:00) 3.89 (16:40) 0 0 0 0 0
14-06-2019 24 (18:20) 18.8 (05:10) 21.4 8.33 (17:00) 4.17 (16:50) 0 0 0 0 0
13-06-2019 24.1 (15:10) 19.3 (00:00) 21.7 8.33 (14:10) 3.89 (15:20) 0 0 0 0 0
12-06-2019 24.1 (15:20) 18.5 (00:00) 21.3 10.83 (16:30) 3.89 (18:40) 4.6 1 3.6 0 0
11-06-2019 21.8 (13:30) 19.3 (00:00) 20.5 12.78 (02:20) 6.11 (02:10) 1 0 0 0.8 0.2
10-06-2019 24 (15:40) 19.1 (00:00) 21.6 11.39 (15:10) 5.28 (15:10) 0 0 0 0 0
09-06-2019 23.9 (14:30) 19 (00:00) 21.4 10.28 (15:50) 4.17 (15:50) 0 0 0 0 0
08-06-2019 24 (15:30) 19.8 (00:00) 21.9 10 (17:30) 3.89 (14:40) 0 0 0 0 0
07-06-2019 23.7 (14:50) 19.3 (00:00) 21.5 -- (--) -- (--) 0 0 0 0 0
06-06-2019 22.9 (14:50) 19.5 (00:00) 21.2 10 (17:10) 3.89 (16:00) 0 0 0 0 0
05-06-2019 24.1 (14:10) 20.7 (00:00) 22.4 11.11 (00:20) 3.61 (00:20) 0 0 0 0 0
04-06-2019 27 (15:50) 21.3 (00:00) 24.1 12.22 (13:20) 6.39 (12:40) 0 0 0 0 0
03-06-2019 31.8 (11:30) 21.4 (00:00) 26.6 11.11 (18:20) 5.28 (14:10) 0 0 0 0 0
02-06-2019 29 (16:10) 18.7 (00:00) 23.9 4.72 (13:10) 2.78 (13:10) 0 0 0 0 0
01-06-2019 25.4 (15:20) 17.7 (00:00) 21.6 6.39 (18:00) 3.33 (15:30) 0 0 0 0 0
31-05-2019 24.5 (15:40) 16.2 (00:00) 20.4 6.11 (13:00) 3.33 (12:50) 0 0 0 0 0
30-05-2019 24.2 (17:10) 16.3 (00:00) 20.3 7.78 (00:30) 3.89 (01:40) 0 0 0 0 0
29-05-2019 26.5 (16:50) 19 (00:00) 22.8 9.72 (04:00) 4.17 (08:50) 0 0 0 0 0
28-05-2019 26 (15:40) 19.5 (00:00) 22.8 11.11 (19:50) 5.28 (14:30) 0 0 0 0 0
27-05-2019 29 (13:20) 19.9 (00:00) 24.4 10.56 (18:00) 5.83 (18:00) 0 0 0 0 0
26-05-2019 25.5 (14:30) 19 (00:00) 22.3 11.94 (16:30) 6.11 (16:00) 0 0 0 0 0
25-05-2019 23.7 (16:40) 19.2 (00:00) 21.5 11.11 (22:40) 6.11 (23:00) 0 0 0 0 0
24-05-2019 24.5 (15:50) 19 (00:00) 21.8 13.89 (14:20) 5.83 (06:00) 0 0 0 0 0
23-05-2019 23.8 (15:00) 19.2 (00:00) 21.5 10.56 (19:30) 4.17 (05:40) 0 0 0 0 0
22-05-2019 24.2 (16:00) 19.2 (00:00) 21.7 12.5 (21:50) 4.44 (13:30) 0 0 0 0 0
21-05-2019 22.9 (16:40) 19.3 (02:00) 21.1 8.61 (19:30) 3.61 (19:20) 0 0 0 0 0

Gráficas

Temp. máximas Temp. mínimas Temp. medias Precipitaciones Rachas de viento máximas Velocidades máximas media en intervalos de 10 minutos

Datos horarios

Fecha y hora oficial Temperatura (ºC) Velocidad del viento (km/h) Dirección del viento Racha (km/h) Dirección de racha Precipitación (mm) Presión (hPa) Tendencia (hPa) Humedad (%)
2019-06-19 23:00:00 22.5 5 Nordeste 14 Nordeste 0 -- -- 66
2019-06-19 22:00:00 22.9 4 Norte 16 Norte 0 -- -- 65
2019-06-19 21:00:00 23.3 7 Norte 20 Norte 0 -- -- 63
2019-06-19 20:00:00 24 9 Norte 23 Norte 0 -- -- 59
2019-06-19 19:00:00 25.3 10 Norte 26 Norte 0 -- -- 58
2019-06-19 18:00:00 26.7 14 Norte 28 Norte 0 -- -- 50
2019-06-19 17:00:00 26.1 14 Norte 30 Norte 0 -- -- 48
2019-06-19 16:00:00 26 13 Norte 27 Noroeste 0 -- -- 52
2019-06-19 15:00:00 26.1 13 Norte 28 Norte 0 -- -- 50
2019-06-19 14:00:00 26.8 13 Norte 32 Norte 0 -- -- 49
2019-06-19 13:00:00 26.9 13 Norte 35 Noroeste 0 -- -- 48
2019-06-19 12:00:00 26.2 12 Norte 28 Nordeste 0 -- -- 51
2019-06-19 11:00:00 25.5 10 Norte 20 Norte 0 -- -- 55
2019-06-19 10:00:00 24.2 10 Nordeste 21 Norte 0 -- -- 60
2019-06-19 09:00:00 23.2 8 Nordeste 17 Nordeste 0 -- -- 66
2019-06-19 08:00:00 22 4 Norte 15 Norte 0 -- -- 66
2019-06-19 07:00:00 22 6 Norte 18 Nordeste 0 -- -- 68
2019-06-19 06:00:00 22.2 3 Norte 8 Norte 0 -- -- 67
2019-06-19 05:00:00 22.1 4 Norte 15 Norte 0 -- -- 68
2019-06-19 04:00:00 21.9 4 Norte 9 Norte 0 -- -- 70
2019-06-19 03:00:00 21.1 4 Norte 8 Noroeste 0 -- -- 72
2019-06-19 02:00:00 20.8 4 Norte 6 Noroeste 0 -- -- 72
2019-06-19 01:00:00 21.8 5 Norte 8 Norte 0 -- -- 69
2019-06-19 00:00:00 22.8 3 Sudoeste 8 Nordeste 0 -- -- 75
2019-06-18 23:00:00 23.1 2 Nordeste 8 Nordeste 0 -- -- 65
2019-06-18 22:00:00 22.9 4 Sur 9 Sudeste 0 -- -- 71
2019-06-18 21:00:00 23 3 Sudeste 8 Sudeste 0 -- -- 76
2019-06-18 20:00:00 23.3 5 Sur 11 Sur 0 -- -- 73
2019-06-18 19:00:00 23.8 5 Sur 15 Sur 0 -- -- 70
2019-06-18 18:00:00 25.2 8 Sur 15 Sur 0 -- -- 63
2019-06-18 17:00:00 24.4 9 Sur 13 Sur 0 -- -- 68
2019-06-18 16:00:00 24.6 8 Sur 14 Sur 0 -- -- 67
2019-06-18 15:00:00 24.1 7 Sur 17 Sur 0 -- -- 70
2019-06-18 14:00:00 25.4 10 Sur 18 Sur 0 -- -- 66
2019-06-18 13:00:00 24.8 9 Sur 16 Sur 0 -- -- 67
2019-06-18 12:00:00 24.9 10 Sur 17 Sur 0 -- -- 62
2019-06-18 11:00:00 24.6 6 Sur 14 Sudoeste 0 -- -- 64
2019-06-18 10:00:00 23.4 6 Sur 14 Sur 0 -- -- 70
2019-06-18 09:00:00 21 2 Norte 9 Norte 0 -- -- 76
2019-06-18 08:00:00 18.6 5 Norte 9 Norte 0 -- -- 78
2019-06-18 07:00:00 18.2 4 Norte 8 Norte 0 -- -- 79
2019-06-18 06:00:00 18.3 4 Norte 6 Norte 0 -- -- 78
2019-06-18 05:00:00 18.8 4 Norte 7 Norte 0 -- -- 76
2019-06-18 04:00:00 18.9 4 Norte 6 Norte 0 -- -- 76
2019-06-18 03:00:00 19.3 4 Norte 8 Norte 0 -- -- 75
2019-06-18 02:00:00 19.6 3 Norte 6 Norte 0 -- -- 75
2019-06-18 01:00:00 20 3 Norte 6 Norte 0 -- -- 74
2019-06-18 00:00:00 20.2 4 Norte 5 Norte 0 -- -- 73
2019-06-17 23:00:00 20.9 4 Norte 5 Norte 0 -- -- 71
2019-06-17 22:00:00 21.6 0 Calma 5 Sudeste 0 -- -- 75
2019-06-17 21:00:00 21.9 3 Sudeste 9 Sur 0 -- -- 73
2019-06-17 20:00:00 22.4 5 Sudeste 12 Sur 0 -- -- 69
2019-06-17 19:00:00 23.2 6 Sur 17 Sur 0 -- -- 68
2019-06-17 18:00:00 24.2 9 Sur 16 Sur 0 -- -- 64
2019-06-17 17:00:00 24.2 9 Sur 18 Sur 0 -- -- 64
2019-06-17 16:00:00 24 9 Sur 18 Sudeste 0 -- -- 63
2019-06-17 15:00:00 24.3 9 Sur 17 Sur 0 -- -- 62
2019-06-17 14:00:00 23.8 9 Sur 17 Sur 0 -- -- 63
2019-06-17 13:00:00 23.5 8 Sur 16 Sudeste 0 -- -- 64
2019-06-17 12:00:00 22.8 8 Sudeste 14 Sudeste 0 -- -- 66
2019-06-17 11:00:00 22.3 8 Sur 14 Sur 0 -- -- 67
2019-06-17 10:00:00 22 7 Sur 13 Sur 0 -- -- 66
2019-06-17 09:00:00 19.9 2 Nordeste 9 Norte 0 -- -- 74
2019-06-17 08:00:00 16.9 5 Norte 8 Norte 0 -- -- 80
2019-06-17 07:00:00 16.8 4 Norte 8 Norte 0 -- -- 81
2019-06-17 06:00:00 17.1 5 Norte 8 Norte 0 -- -- 81
2019-06-17 05:00:00 17.4 4 Norte 8 Norte 0 -- -- 79
2019-06-17 04:00:00 17.7 4 Norte 8 Norte 0 -- -- 79
2019-06-17 03:00:00 18.3 3 Norte 8 Norte 0 -- -- 76
2019-06-17 02:00:00 18.2 4 Norte 7 Norte 0 -- -- 76
2019-06-17 01:00:00 19 2 Norte 6 Norte 0 -- -- 72
2019-06-17 00:00:00 19.8 2 Norte 6 Norte 0 -- -- 69
2019-06-16 23:00:00 20.3 3 Nordeste 9 Nordeste 0 -- -- 68
2019-06-16 22:00:00 20.8 4 Sudeste 11 Sur 0 -- -- 68
2019-06-16 21:00:00 21 6 Sur 13 Este 0 -- -- 68
2019-06-16 20:00:00 21.6 5 Sudeste 13 Sudeste 0 -- -- 66
2019-06-16 19:00:00 22.1 6 Sur 17 Sur 0 -- -- 64
2019-06-16 18:00:00 22.4 6 Sur 15 Sur 0 -- -- 62
2019-06-16 17:00:00 23.8 8 Sur 15 Sudeste 0 -- -- 56
2019-06-16 16:00:00 23.7 6 Sudeste 17 Sur 0 -- -- 58
2019-06-16 15:00:00 23.3 9 Sur 18 Sudeste 0 -- -- 58
2019-06-16 14:00:00 23.6 9 Sur 19 Sur 0 -- -- 58
2019-06-16 13:00:00 23 9 Sur 20 Sur 0 -- -- 60
2019-06-16 12:00:00 22.6 9 Sur 17 Sur 0 -- -- 61
2019-06-16 11:00:00 22.2 9 Sur 17 Sur 0 -- -- 63
2019-06-16 10:00:00 21.2 6 Sur 13 Sudeste 0 -- -- 65
2019-06-16 09:00:00 19.1 2 Norte 8 Norte 0 -- -- 66
2019-06-16 08:00:00 16.4 5 Norte 8 Norte 0 -- -- 75
2019-06-16 07:00:00 16.3 4 Norte 8 Nordeste 0 -- -- 74
2019-06-16 06:00:00 16.4 5 Norte 7 Norte 0 -- -- 74
2019-06-16 05:00:00 16.7 3 Norte 7 Norte 0 -- -- 76
2019-06-16 04:00:00 16.9 3 Norte 8 Norte 0 -- -- 76
2019-06-16 03:00:00 16.9 4 Norte 9 Norte 0 -- -- 71
2019-06-16 02:00:00 17.2 5 Norte 11 Nordeste 0 -- -- 69
2019-06-16 01:00:00 17.6 3 Norte 9 Nordeste 0 -- -- 67
2019-06-16 00:00:00 18 4 Norte 7 Norte 0 -- -- 68
2019-06-15 23:00:00 19 2 Norte 9 Norte 0 -- -- 67
2019-06-15 22:00:00 19.7 4 Norte 12 Nordeste 0 -- -- 66
2019-06-15 21:00:00 20.4 5 Norte 16 Norte 0 -- -- 60
2019-06-15 20:00:00 21.5 7 Norte 19 Noroeste 0 -- -- 56
2019-06-15 19:00:00 22.4 6 Norte 27 Sur 0 -- -- 53
2019-06-15 18:00:00 21.6 11 Sur 26 Sudeste 0 -- -- 61
2019-06-15 17:00:00 21.6 12 Sudeste 30 Sudeste 0 -- -- 59
2019-06-15 16:00:00 23.3 9 Sur 24 Sudeste 0 -- -- 55
2019-06-15 15:00:00 23.2 9 Sudeste 21 Sudeste 0 -- -- 55
2019-06-15 14:00:00 22.7 7 Sudeste 20 Sudeste 0 -- -- 56
2019-06-15 13:00:00 22.2 7 Sudeste 19 Sudeste 0 -- -- 59
2019-06-15 12:00:00 22.2 8 Sudeste 21 Este 0 -- -- 56
2019-06-15 11:00:00 20.7 8 Sudeste 21 Sudeste 0 -- -- 63
2019-06-15 10:00:00 21.7 5 Sudeste 16 Sudoeste 0 -- -- 57
2019-06-15 09:00:00 20.9 7 Sur 19 Sudeste 0 -- -- 58
2019-06-15 08:00:00 19.5 7 Sur 22 Sur 0 -- -- 60
2019-06-15 07:00:00 19.3 4 Oeste 19 Sur 0 -- -- 64
2019-06-15 06:00:00 19.1 5 Sur 12 Sur 0 -- -- 70
2019-06-15 05:00:00 17.9 4 Norte 10 Norte 0 -- -- 72
2019-06-15 04:00:00 17.5 4 Norte 9 Norte 0 -- -- 71
2019-06-15 03:00:00 17.3 3 Norte 6 Norte 0 -- -- 71
2019-06-15 02:00:00 18 4 Norte 7 Norte 0 -- -- 68
2019-06-15 01:00:00 18.5 3 Norte 11 Norte 0 -- -- 66
2019-06-15 00:00:00 19.1 4 Norte 10 Norte 0 -- -- 66
2019-06-14 23:00:00 19.5 3 Norte 7 Nordeste 0 -- -- 64
2019-06-14 22:00:00 19.9 4 Norte 14 Noroeste 0 -- -- 62
2019-06-14 21:00:00 20.5 5 Norte 15 Noroeste 0 -- -- 58
2019-06-14 20:00:00 21.3 7 Norte 23 Norte 0 -- -- 58
2019-06-14 19:00:00 23.4 10 Norte 24 Norte 0 -- -- 48
2019-06-14 18:00:00 23 6 Sur 24 Sudeste 0 -- -- 52
2019-06-14 17:00:00 22.8 12 Sudeste 30 Sudeste 0 -- -- 52
2019-06-14 16:00:00 22.3 10 Sudeste 28 Sudeste 0 -- -- 54
2019-06-14 15:00:00 22 13 Sudeste 28 Este 0 -- -- 54
2019-06-14 14:00:00 22.6 13 Sudeste 28 Sudeste 0 -- -- 53
2019-06-14 13:00:00 22.3 8 Norte 22 Nordeste 0 -- -- 50
2019-06-14 12:00:00 22.5 5 Norte 18 Noroeste 0 -- -- 45
2019-06-14 11:00:00 22.6 7 Norte 24 Norte 0 -- -- 43
2019-06-14 10:00:00 20.8 4 Norte 11 Noroeste 0 -- -- 51
2019-06-14 09:00:00 20.6 4 Norte 8 Norte 0 -- -- 61
2019-06-14 08:00:00 19.2 0 Calma 5 Nordeste 0 -- -- 67
2019-06-14 07:00:00 19 0 Calma 5 Norte 0 -- -- 69
2019-06-14 06:00:00 18.9 0 Calma 7 Noroeste 0 -- -- 67
2019-06-14 05:00:00 18.9 2 Norte 10 Norte 0 -- -- 67
2019-06-14 04:00:00 18.9 5 Norte 12 Norte 0 -- -- 68
2019-06-14 03:00:00 19.4 4 Norte 12 Nordeste 0 -- -- 64
2019-06-14 02:00:00 19.9 6 Norte 14 Noroeste 0 -- -- 62
2019-06-14 01:00:00 20 5 Norte 14 Norte 0 -- -- 64
2019-06-14 00:00:00 20.2 5 Norte 12 Norte 0 -- -- 66
2019-06-13 23:00:00 20 6 Norte 14 Norte 0 -- -- 64
2019-06-13 22:00:00 20.3 3 Norte 13 Norte 0 -- -- 64
2019-06-13 21:00:00 20.5 5 Norte 12 Norte 0 -- -- 60
2019-06-13 20:00:00 21 7 Norte 19 Norte 0 -- -- 56
2019-06-13 19:00:00 21.8 7 Norte 21 Noroeste 0 -- -- 57
2019-06-13 18:00:00 22.2 11 Norte 23 Norte 0 -- -- 56
2019-06-13 17:00:00 22.7 11 Norte 26 Norte 0 -- -- 55
2019-06-13 16:00:00 23.3 11 Norte 27 Nordeste 0 -- -- 51
2019-06-13 15:00:00 23.9 12 Norte 30 Norte 0 -- -- 48
2019-06-13 14:00:00 23 12 Norte 27 Norte 0 -- -- 52
2019-06-13 13:00:00 22.8 11 Norte 26 Norte 0 -- -- 52
2019-06-13 12:00:00 22.1 12 Norte 27 Norte 0 -- -- 54
2019-06-13 11:00:00 21.4 9 Norte 23 Norte 0 -- -- 57
2019-06-13 10:00:00 20 7 Norte 20 Noroeste 0 -- -- 63
2019-06-13 09:00:00 19.6 7 Norte 27 Norte 0 -- -- 65
2019-06-13 08:00:00 19.4 4 Noroeste 13 Norte 0 -- -- 65
2019-06-13 07:00:00 19.3 3 Norte 21 Norte 0 -- -- 66
2019-06-13 06:00:00 19.4 5 Norte 30 Norte 0 -- -- 64
2019-06-13 05:00:00 19.5 9 Norte 26 Norte 0 -- -- 63
2019-06-13 04:00:00 19.5 8 Norte 28 Norte 0 -- -- 66
2019-06-13 03:00:00 19.5 8 Nordeste 17 Nordeste 0 -- -- 67
2019-06-13 02:00:00 19.5 3 Oeste 15 Noroeste 0 -- -- 63
2019-06-13 01:00:00 19.7 5 Norte 20 Nordeste 0 -- -- 64
2019-06-13 00:00:00 19.7 8 Norte 27 Norte 0 -- -- 66
2019-06-12 23:00:00 19.6 9 Norte 22 Norte 0 -- -- 67
2019-06-12 22:00:00 19.7 7 Norte 29 Noroeste 0 -- -- 66
2019-06-12 21:00:00 20 9 Norte 32 Noroeste 0 -- -- 66
2019-06-12 20:00:00 20.3 10 Norte 26 Norte 0 -- -- 70
2019-06-12 19:00:00 20.8 12 Norte 39 Norte 0 -- -- 70
2019-06-12 18:00:00 21.4 11 Norte 32 Norte 0 -- -- 65
2019-06-12 17:00:00 21.9 11 Norte 39 Nordeste 0 -- -- 65
2019-06-12 16:00:00 23.7 10 Norte 32 Norte 0 -- -- 55
2019-06-12 15:00:00 23.7 12 Norte 30 Norte 0 -- -- 54
2019-06-12 14:00:00 22.8 10 Norte 34 Norte 0 -- -- 60
2019-06-12 13:00:00 21.7 3 Norte 23 Noroeste 0 -- -- 67
2019-06-12 12:00:00 20 5 Norte 14 Norte 0.2 -- -- 75
2019-06-12 11:00:00 19.6 4 Sudoeste 23 Norte 0.2 -- -- 80
2019-06-12 10:00:00 19.3 4 Noroeste 26 Noroeste 1 -- -- 83
2019-06-12 09:00:00 18.9 5 Norte 14 Noroeste 1.8 -- -- 88
2019-06-12 08:00:00 18.9 9 Norte 27 Norte 0.4 -- -- 86
2019-06-12 07:00:00 19.5 11 Norte 30 Norte 0 -- -- 80
2019-06-12 06:00:00 19.2 5 Nordeste 23 Norte 0.2 -- -- 82
2019-06-12 05:00:00 18.5 4 Norte 26 Norte 0.6 -- -- 87
2019-06-12 04:00:00 18.9 5 Nordeste 19 Nordeste 0.2 -- -- 85
2019-06-12 03:00:00 19.3 7 Norte 29 Norte 0 -- -- 81
2019-06-12 02:00:00 19.1 4 Noroeste 27 Noroeste 0 -- -- 83
2019-06-12 01:00:00 19.8 6 Norte 23 Norte 0 -- -- 80
2019-06-12 00:00:00 19.9 4 Norte 24 Nordeste 0 -- -- 78
2019-06-11 23:00:00 20.1 8 Norte 24 Norte 0.2 -- -- 77
2019-06-11 22:00:00 20.3 7 Norte 26 Nordeste 0 -- -- 75
2019-06-11 21:00:00 20.3 9 Norte 36 Nordeste 0 -- -- 77
2019-06-11 20:00:00 20.5 4 Norte 28 Norte 0 -- -- 75
2019-06-11 19:00:00 20.9 7 Norte 25 Norte 0 -- -- 76
2019-06-11 18:00:00 21.1 8 Norte 24 Norte 0 -- -- 74
2019-06-11 17:00:00 21.2 6 Norte 27 Nordeste 0 -- -- 74
2019-06-11 16:00:00 20.4 8 Norte 30 Norte 0 -- -- 82
2019-06-11 15:00:00 20.3 9 Norte 28 Noroeste 0.6 -- -- 81
2019-06-11 14:00:00 21.3 5 Norte 30 Norte 0.2 -- -- 78
2019-06-11 13:00:00 21.4 9 Norte 27 Nordeste 0 -- -- 72
2019-06-11 12:00:00 20.7 8 Nordeste 23 Norte 0 -- -- 77
2019-06-11 11:00:00 20.8 6 Noroeste 26 Norte 0 -- -- 74
2019-06-11 10:00:00 20.8 9 Norte 25 Noroeste 0 -- -- 68
2019-06-11 09:00:00 20.4 8 Norte 32 Norte 0 -- -- 68
2019-06-11 08:00:00 19.7 5 Norte 19 Sudeste 0 -- -- 70
2019-06-11 07:00:00 19.6 13 Norte 40 Norte 0 -- -- 65
2019-06-11 06:00:00 19.5 13 Norte 33 Nordeste 0 -- -- 69
2019-06-11 05:00:00 19.4 15 Norte 33 Nordeste 0 -- -- 66
2019-06-11 04:00:00 19.5 14 Norte 35 Norte 0 -- -- 68
2019-06-11 03:00:00 19.4 13 Norte 46 Norte 0 -- -- 68
2019-06-11 02:00:00 19.6 17 Norte 41 Norte 0 -- -- 68
2019-06-11 01:00:00 19.7 14 Norte 42 Norte 0 -- -- 68
2019-06-11 00:00:00 19.7 12 Norte 37 Nordeste 0 -- -- 69
2019-06-10 23:00:00 20 9 Norte 34 Noroeste 0 -- -- 69
2019-06-10 22:00:00 20.1 10 Norte 31 Nordeste 0 -- -- 69
2019-06-10 21:00:00 20.4 8 Norte 29 Norte 0 -- -- 69
2019-06-10 20:00:00 20.9 9 Norte 28 Norte 0 -- -- 66
2019-06-10 19:00:00 21.1 13 Norte 34 Norte 0 -- -- 65
2019-06-10 18:00:00 20.4 10 Norte 35 Norte 0 -- -- 74
2019-06-10 17:00:00 23.5 13 Norte 36 Norte 0 -- -- 57
2019-06-10 16:00:00 23.6 15 Norte 41 Norte 0 -- -- 56
2019-06-10 15:00:00 23.6 13 Norte 39 Norte 0 -- -- 58
2019-06-10 14:00:00 23.3 13 Norte 37 Noroeste 0 -- -- 57
2019-06-10 13:00:00 22.6 10 Norte 35 Norte 0 -- -- 61
2019-06-10 12:00:00 21.6 8 Noroeste 27 Norte 0 -- -- 65
2019-06-10 11:00:00 21.2 8 Norte 26 Norte 0 -- -- 64
2019-06-10 10:00:00 21 7 Norte 24 Noroeste 0 -- -- 62
2019-06-10 09:00:00 20.2 5 Norte 25 Nordeste 0 -- -- 64
2019-06-10 08:00:00 19.8 10 Norte 29 Noroeste 0 -- -- 65
2019-06-10 07:00:00 19.7 11 Norte 30 Noroeste 0 -- -- 66
2019-06-10 06:00:00 19.4 7 Norte 21 Nordeste 0 -- -- 67
2019-06-10 05:00:00 19.4 6 Norte 15 Norte 0 -- -- 67
2019-06-10 04:00:00 19.2 4 Norte 24 Noroeste 0 -- -- 66
2019-06-10 03:00:00 19.5 4 Noroeste 21 Sur 0 -- -- 65
2019-06-10 02:00:00 19.7 7 Norte 18 Este 0 -- -- 65
2019-06-10 01:00:00 19.7 8 Norte 26 Norte 0 -- -- 65
2019-06-10 00:00:00 19.8 8 Norte 23 Nordeste 0 -- -- 65
2019-06-09 23:00:00 19.7 8 Norte 24 Norte 0 -- -- 64
2019-06-09 22:00:00 20 9 Norte 23 Norte 0 -- -- 65
2019-06-09 21:00:00 20.3 10 Norte 26 Nordeste 0 -- -- 62
2019-06-09 20:00:00 20.8 11 Norte 30 Norte 0 -- -- 61
2019-06-09 19:00:00 21.5 12 Norte 29 Norte 0 -- -- 58
2019-06-09 18:00:00 23.3 12 Norte 36 Norte 0 -- -- 51
2019-06-09 17:00:00 23.7 12 Norte 28 Norte 0 -- -- 48
2019-06-09 16:00:00 23.5 12 Norte 37 Norte 0 -- -- 50
2019-06-09 15:00:00 23.6 14 Norte 35 Norte 0 -- -- 50
2019-06-09 14:00:00 23.5 15 Norte 31 Norte 0 -- -- 49
2019-06-09 13:00:00 23.3 12 Norte 29 Norte 0 -- -- 47
2019-06-09 12:00:00 20.9 9 Norte 36 Norte 0 -- -- 57
2019-06-09 11:00:00 21.2 8 Norte 21 Norte 0 -- -- 54
2019-06-09 10:00:00 20.2 8 Norte 23 Norte 0 -- -- 60
2019-06-09 09:00:00 20.6 10 Norte 26 Norte 0 -- -- 55
2019-06-09 08:00:00 19.1 5 Norte 19 Nordeste 0 -- -- 58
2019-06-09 07:00:00 19.2 3 Norte 21 Norte 0 -- -- 62
2019-06-09 06:00:00 19.1 4 Norte 14 Norte 0 -- -- 60
2019-06-09 05:00:00 19.5 6 Norte 19 Nordeste 0 -- -- 59
2019-06-09 04:00:00 19.5 5 Norte 23 Norte 0 -- -- 66
2019-06-09 03:00:00 19.4 5 Norte 26 Norte 0 -- -- 62
2019-06-09 02:00:00 19.6 8 Norte 24 Norte 0 -- -- 63
2019-06-09 01:00:00 19.8 11 Norte 27 Norte 0 -- -- 59
2019-06-09 00:00:00 19.9 9 Nordeste 28 Nordeste 0 -- -- 63
2019-06-08 23:00:00 20.1 10 Norte 30 Nordeste 0 -- -- 63
2019-06-08 22:00:00 20.4 7 Norte 26 Norte 0 -- -- 63
2019-06-08 21:00:00 20.5 7 Norte 27 Nordeste 0 -- -- 63
2019-06-08 20:00:00 20.7 9 Norte 24 Norte 0 -- -- 63
2019-06-08 19:00:00 21 10 Norte 28 Norte 0 -- -- 62
2019-06-08 18:00:00 21.7 10 Norte 36 Norte 0 -- -- 62
2019-06-08 17:00:00 22.4 12 Norte 31 Norte 0 -- -- 54
2019-06-08 16:00:00 23.3 12 Norte 33 Norte 0 -- -- 53
2019-06-08 15:00:00 23.7 13 Norte 32 Norte 0 -- -- 49
2019-06-08 14:00:00 23.5 10 Norte 29 Noroeste 0 -- -- 52
2019-06-08 13:00:00 23 9 Norte 25 Norte 0 -- -- 54
2019-06-08 12:00:00 22.2 9 Norte 23 Noroeste 0 -- -- 56
2019-06-08 11:00:00 21.4 6 Norte 14 Norte 0 -- -- 66
2019-06-08 10:00:00 21.3 4 Norte 10 Sur 0 -- -- 62
2019-06-08 09:00:00 20.5 4 Norte 13 Norte 0 -- -- 67
2019-06-08 08:00:00 20.1 5 Nordeste 12 Nordeste 0 -- -- 73
2019-06-08 07:00:00 20.3 4 Sur 10 Sudeste 0 -- -- 73
2019-06-08 06:00:00 20.4 6 Norte 16 Sur 0 -- -- 69
2019-06-08 05:00:00 20.7 4 Sur 13 Sur 0 -- -- 74
2019-06-08 04:00:00 20.9 5 Norte 20 Norte 0 -- -- 71
2019-06-08 03:00:00 20.8 3 Nordeste 17 Norte 0 -- -- 77
2019-06-08 02:00:00 20.8 3 Norte 21 Noroeste 0 -- -- 76
2019-06-08 01:00:00 20.9 9 Norte 21 Nordeste 0 -- -- 76
2019-06-08 00:00:00 21.1 6 Nordeste 27 Nordeste 0 -- -- 74
2019-06-07 23:00:00 21.1 5 Norte 18 Norte 0 -- -- 71
2019-06-07 22:00:00 21 3 Nordeste 17 Norte 0 -- -- 71
2019-06-07 21:00:00 21.3 7 Norte 18 Nordeste 0 -- -- 68
2019-06-07 20:00:00 21.9 9 Norte 24 Norte 0 -- -- 65
2019-06-07 19:00:00 23.6 8 Norte 20 Norte 0 -- -- 59
2019-06-07 18:00:00 22.7 6 Noroeste 22 Norte 0 -- -- 62
2019-06-07 17:00:00 22.4 9 Norte 21 Norte 0 -- -- 64
2019-06-07 16:00:00 22.9 10 Norte 27 Norte 0 -- -- 60
2019-06-07 15:00:00 23.6 10 Norte 23 Norte 0 -- -- 57
2019-06-07 14:00:00 22.9 8 Norte 28 Nordeste 0 -- -- 62
2019-06-07 13:00:00 22.5 10 Norte 21 Norte 0 -- -- 64
2019-06-07 12:00:00 21.2 7 Norte 22 Norte 0 -- -- 67
2019-06-07 11:00:00 22 12 Norte 22 Norte 0 -- -- 60
2019-06-07 10:00:00 21.1 7 Norte 18 Noroeste 0 -- -- 62
2019-06-07 09:00:00 20 4 Norte 16 Noroeste 0 -- -- 67
2019-06-07 08:00:00 19.8 8 Norte 23 Noroeste 0 -- -- 64
2019-06-07 07:00:00 19.4 4 Norte 21 Norte 0 -- -- 66
2019-06-07 06:00:00 19.3 7 Norte 17 Norte 0 -- -- 66
2019-06-07 05:00:00 19.5 5 Norte 18 Nordeste 0 -- -- 67
2019-06-07 04:00:00 19.6 5 Norte 18 Nordeste 0 -- -- 68
2019-06-07 03:00:00 19.6 6 Noroeste 18 Norte 0 -- -- 66
2019-06-07 02:00:00 19.5 4 Norte 37 Noroeste 0 -- -- 64
2019-06-07 01:00:00 19.7 11 Norte 26 Noroeste 0 -- -- 64
2019-06-07 00:00:00 19.8 8 Norte 24 Norte 0 -- -- 61
2019-06-06 23:00:00 19.9 10 Norte 31 Norte 0 -- -- 61
2019-06-06 22:00:00 20 10 Norte 24 Nordeste 0 -- -- 61
2019-06-06 21:00:00 20.2 8 Norte 34 Norte 0 -- -- 60
2019-06-06 20:00:00 20.4 10 Norte 30 Norte 0 -- -- 59
2019-06-06 19:00:00 20.9 11 Norte 31 Noroeste 0 -- -- 57
2019-06-06 18:00:00 21.6 11 Norte 36 Norte 0 -- -- 55
2019-06-06 17:00:00 22.5 12 Norte 31 Norte 0 -- -- 53
2019-06-06 16:00:00 22.5 14 Norte 32 Norte 0 -- -- 51
2019-06-06 15:00:00 22.9 10 Norte 35 Norte 0 -- -- 50
2019-06-06 14:00:00 22.3 9 Nordeste 25 Oeste 0 -- -- 52
2019-06-06 13:00:00 21.5 9 Norte 25 Nordeste 0 -- -- 58
2019-06-06 12:00:00 19.9 11 Norte 24 Norte 0 -- -- 71
2019-06-06 11:00:00 21.2 9 Norte 23 Norte 0 -- -- 58
2019-06-06 10:00:00 21.4 7 Norte 23 Nordeste 0 -- -- 53
2019-06-06 09:00:00 20.8 7 Norte 19 Noroeste 0 -- -- 54
2019-06-06 08:00:00 19.6 8 Norte 27 Noroeste 0 -- -- 59
2019-06-06 07:00:00 19.6 9 Norte 21 Norte 0 -- -- 62
2019-06-06 06:00:00 19.6 9 Norte 25 Norte 0 -- -- 63
2019-06-06 05:00:00 19.7 5 Norte 17 Norte 0 -- -- 61
2019-06-06 04:00:00 20 5 Norte 24 Norte 0 -- -- 62
2019-06-06 03:00:00 20 6 Norte 22 Nordeste 0 -- -- 65
2019-06-06 02:00:00 20.1 8 Norte 28 Norte 0 -- -- 64
2019-06-06 01:00:00 20.3 8 Norte 22 Norte 0 -- -- 64
2019-06-06 00:00:00 20.7 6 Norte 24 Noroeste 0 -- -- 64
2019-06-05 23:00:00 20.7 8 Norte 22 Norte 0 -- -- 68
2019-06-05 22:00:00 20.9 6 Norte 26 Norte 0 -- -- 65
2019-06-05 21:00:00 21.3 6 Norte 20 Norte 0 -- -- 64
2019-06-05 20:00:00 21.5 9 Norte 24 Norte 0 -- -- 63
2019-06-05 19:00:00 21.9 9 Norte 27 Noroeste 0 -- -- 62
2019-06-05 18:00:00 22.3 9 Norte 22 Norte 0 -- -- 60
2019-06-05 17:00:00 22.6 9 Norte 27 Norte 0 -- -- 61
2019-06-05 16:00:00 23.2 10 Norte 28 Norte 0 -- -- 59
2019-06-05 15:00:00 24 8 Norte 25 Nordeste 0 -- -- 56
2019-06-05 14:00:00 23.9 10 Norte 27 Nordeste 0 -- -- 57
2019-06-05 13:00:00 23.7 9 Norte 25 Norte 0 -- -- 61
2019-06-05 12:00:00 23.8 10 Norte 26 Norte 0 -- -- 58
2019-06-05 11:00:00 23.4 12 Norte 29 Norte 0 -- -- 58
2019-06-05 10:00:00 23.2 10 Norte 23 Norte 0 -- -- 61
2019-06-05 09:00:00 21.8 6 Norte 22 Norte 0 -- -- 68
2019-06-05 08:00:00 21.4 5 Norte 15 Norte 0 -- -- 71
2019-06-05 07:00:00 21.1 5 Norte 18 Noroeste 0 -- -- 72
2019-06-05 06:00:00 20.9 6 Norte 19 Norte 0 -- -- 74
2019-06-05 05:00:00 20.9 5 Norte 22 Noroeste 0 -- -- 72
2019-06-05 04:00:00 21 8 Norte 21 Noroeste 0 -- -- 74
2019-06-05 03:00:00 21.2 8 Norte 32 Norte 0 -- -- 73
2019-06-05 02:00:00 21.2 10 Norte 26 Norte 0 -- -- 78
2019-06-05 01:00:00 21.6 7 Norte 40 Noroeste 0 -- -- 68
2019-06-05 00:00:00 21.4 14 Norte 36 Norte 0 -- -- 68
2019-06-04 23:00:00 21.4 14 Norte 29 Nordeste 0 -- -- 71
2019-06-04 22:00:00 21.3 10 Norte 21 Norte 0 -- -- 71
2019-06-04 21:00:00 21.5 10 Norte 26 Nordeste 0 -- -- 69
2019-06-04 20:00:00 21.9 8 Norte 26 Norte 0 -- -- 67
2019-06-04 19:00:00 23.6 13 Norte 29 Norte 0 -- -- 60
2019-06-04 18:00:00 24.5 19 Norte 37 Norte 0 -- -- 55
2019-06-04 17:00:00 25.6 14 Norte 34 Norte 0 -- -- 52
2019-06-04 16:00:00 26.8 14 Norte 33 Norte 0 -- -- 44
2019-06-04 15:00:00 26.7 16 Norte 34 Norte 0 -- -- 46
2019-06-04 14:00:00 26.5 16 Norte 44 Norte 0 -- -- 48
2019-06-04 13:00:00 26.5 18 Norte 36 Norte -- -- -- 43
2019-06-04 12:00:00 -- 19 Norte 39 Norte 0 -- -- --
2019-06-04 11:00:00 26.3 18 Norte 40 Norte 0 -- -- 37
2019-06-04 10:00:00 25.7 16 Norte 39 Norte 0 -- -- 36
2019-06-04 09:00:00 24.3 15 Norte 31 Norte 0 -- -- 38
2019-06-04 08:00:00 23.3 13 Norte 27 Norte 0 -- -- 38
2019-06-04 07:00:00 22.9 12 Norte 30 Nordeste 0 -- -- 43
2019-06-04 06:00:00 23.1 14 Norte 31 Norte 0 -- -- 44
2019-06-04 05:00:00 23.9 17 Norte 35 Norte 0 -- -- 37
2019-06-04 04:00:00 24.3 18 Norte 34 Norte 0 -- -- 33
2019-06-04 03:00:00 24.4 14 Norte 38 Norte 0 -- -- 33
2019-06-04 02:00:00 24.4 14 Norte 31 Norte 0 -- -- 34
2019-06-04 01:00:00 24.2 10 Norte 25 Norte 0 -- -- 35
2019-06-04 00:00:00 24.3 13 Norte 24 Nordeste 0 -- -- 34
2019-06-03 23:00:00 23.8 10 Norte 28 Norte 0 -- -- 41
2019-06-03 22:00:00 23.8 14 Norte 28 Nordeste 0 -- -- 47
2019-06-03 21:00:00 24.9 16 Norte 28 Nordeste 0 -- -- 45
2019-06-03 20:00:00 26.5 13 Norte 33 Nordeste 0 -- -- 35
2019-06-03 19:00:00 28.4 12 Norte 40 Norte 0 -- -- 29
2019-06-03 18:00:00 28.6 17 Norte 38 Norte 0 -- -- 30
2019-06-03 17:00:00 28.7 12 Norte 35 Norte 0 -- -- 36
2019-06-03 16:00:00 29.9 17 Norte 38 Nordeste 0 -- -- 30
2019-06-03 15:00:00 30.8 18 Norte 38 Norte 0 -- -- 28
2019-06-03 14:00:00 31 18 Norte 37 Nordeste 0 -- -- 27
2019-06-03 13:00:00 31.7 14 Norte 32 Norte 0 -- -- 24
2019-06-03 12:00:00 31.1 17 Norte 31 Norte 0 -- -- 25
2019-06-03 11:00:00 31.2 10 Norte 21 Nordeste 0 -- -- 24
2019-06-03 10:00:00 27.9 3 Sur 9 Sur 0 -- -- 30
2019-06-03 09:00:00 24.6 2 Norte 9 Norte 0 -- -- 35
2019-06-03 08:00:00 22 5 Norte 11 Norte 0 -- -- 36
2019-06-03 07:00:00 22.1 3 Oeste 10 Norte 0 -- -- 32
2019-06-03 06:00:00 21.8 4 Norte 9 Norte 0 -- -- 34
2019-06-03 05:00:00 23.2 4 Norte 11 Sudoeste 0 -- -- 31
2019-06-03 04:00:00 25.2 4 Oeste 14 Noroeste 0 -- -- 26
2019-06-03 03:00:00 24.9 4 Noroeste 10 Noroeste 0 -- -- 28
2019-06-03 02:00:00 26.4 4 Norte 14 Norte 0 -- -- 25
2019-06-03 01:00:00 26.2 3 Norte 13 Noroeste 0 -- -- 26
2019-06-03 00:00:00 26.2 3 Oeste 10 Sudoeste 0 -- -- 31
2019-06-02 23:00:00 24.9 0 Calma 7 Sudoeste 0 -- -- 46
2019-06-02 22:00:00 25.8 3 Sudoeste 6 Sudeste 0 -- -- 51
2019-06-02 21:00:00 26.4 2 Sudoeste 8 Sur 0 -- -- 54
2019-06-02 20:00:00 26.4 3 Sudoeste 11 Sudeste 0 -- -- 55
2019-06-02 19:00:00 28.9 5 Sudeste 13 Sudeste 0 -- -- 44
2019-06-02 18:00:00 28.5 6 Sudeste 13 Sudeste 0 -- -- 48
2019-06-02 17:00:00 28.4 5 Sudeste 12 Este 0 -- -- 53
2019-06-02 16:00:00 28.8 8 Sur 14 Sur 0 -- -- 50
2019-06-02 15:00:00 26.4 8 Sudeste 15 Este 0 -- -- 60
2019-06-02 14:00:00 26.9 6 Sur 17 Sur 0 -- -- 60
2019-06-02 13:00:00 26 8 Sur 17 Sudeste 0 -- -- 65
2019-06-02 12:00:00 24.7 6 Sudeste 15 Sudeste 0 -- -- 70
2019-06-02 11:00:00 24.5 5 Sudeste 12 Sur 0 -- -- 70
2019-06-02 10:00:00 24.1 4 Sudeste 10 Sur 0 -- -- 72
2019-06-02 09:00:00 21.4 3 Sudeste 5 Sudeste 0 -- -- 67
2019-06-02 08:00:00 18.9 4 Norte 9 Norte 0 -- -- 61
2019-06-02 07:00:00 19.1 2 Noroeste 10 Norte 0 -- -- 67
2019-06-02 06:00:00 19.5 4 Norte 9 Sudoeste 0 -- -- 69
2019-06-02 05:00:00 19.3 5 Norte 8 Norte 0 -- -- 68
2019-06-02 04:00:00 19.1 3 Noroeste 8 Norte 0 -- -- 76
2019-06-02 03:00:00 19.3 2 Norte 8 Norte 0 -- -- 81
2019-06-02 02:00:00 19.3 4 Norte 7 Norte 0 -- -- 81
2019-06-02 01:00:00 19.7 4 Norte 6 Norte 0 -- -- 80
2019-06-02 00:00:00 20.7 3 Norte 6 Norte 0 -- -- 78
2019-06-01 23:00:00 21.2 3 Sur 7 Oeste 0 -- -- 79
2019-06-01 22:00:00 21.4 3 Oeste 10 Sur 0 -- -- 77
2019-06-01 21:00:00 21.9 5 Sur 12 Sudeste 0 -- -- 77
2019-06-01 20:00:00 22.9 5 Sur 13 Sur 0 -- -- 69
2019-06-01 19:00:00 24.4 6 Sur 15 Sur 0 -- -- 64
2019-06-01 18:00:00 24 9 Sudoeste 23 Sur 0 -- -- 65
2019-06-01 17:00:00 25.1 8 Sudeste 19 Sur 0 -- -- 62
2019-06-01 16:00:00 25.3 7 Sudoeste 23 Sudoeste 0 -- -- 61
2019-06-01 15:00:00 25.3 9 Sudoeste 23 Sudeste 0 -- -- 61
2019-06-01 14:00:00 24.5 10 Sur 19 Sur 0 -- -- 63
2019-06-01 13:00:00 23.8 9 Sur 15 Sur 0 -- -- 66
2019-06-01 12:00:00 23.5 8 Sur 17 Sur 0 -- -- 68
2019-06-01 11:00:00 22.9 9 Sur 15 Sudeste 0 -- -- 71
2019-06-01 10:00:00 22.2 6 Sur 14 Sur 0 -- -- 73
2019-06-01 09:00:00 20.5 2 Sur 8 Norte 0 -- -- 79
2019-06-01 08:00:00 18.3 3 Norte 8 Norte 0 -- -- 83
2019-06-01 07:00:00 18.4 6 Norte 12 Norte 0 -- -- 80
2019-06-01 06:00:00 18 3 Norte 8 Norte 0 -- -- 81
2019-06-01 05:00:00 18.7 4 Norte 13 Norte 0 -- -- 79
2019-06-01 04:00:00 19.6 5 Nordeste 14 Nordeste 0 -- -- 75
2019-06-01 03:00:00 19.5 3 Norte 9 Sudeste 0 -- -- 79
2019-06-01 02:00:00 20.2 4 Sudeste 13 Sudoeste 0 -- -- 83
2019-06-01 01:00:00 20.1 2 Sur 10 Nordeste 0 -- -- 79
2019-06-01 00:00:00 20.1 2 Norte 7 Sur 0 -- -- 77
2019-05-31 23:00:00 20.8 3 Sur 7 Sur 0 -- -- 76
2019-05-31 22:00:00 21.1 5 Sur 11 Sudoeste 0 -- -- 76
2019-05-31 21:00:00 21.3 5 Sudoeste 13 Sur 0 -- -- 76
2019-05-31 20:00:00 22.3 5 Sudoeste 15 Sudoeste 0 -- -- 70
2019-05-31 19:00:00 24 7 Sudoeste 14 Sur 0 -- -- 65
2019-05-31 18:00:00 23.7 7 Sur 16 Sudeste 0 -- -- 66
2019-05-31 17:00:00 24.1 10 Sur 17 Sur 0 -- -- 64
2019-05-31 16:00:00 24.3 9 Sur 19 Sudeste 0 -- -- 64
2019-05-31 15:00:00 24 10 Sur 16 Sudeste 0 -- -- 65
2019-05-31 14:00:00 23.8 9 Sur 21 Sur 0 -- -- 65
2019-05-31 13:00:00 23.6 10 Sur 22 Sudeste 0 -- -- 65
2019-05-31 12:00:00 23.4 9 Sur 17 Sur 0 -- -- 64
2019-05-31 11:00:00 22.5 9 Sur 17 Sur 0 -- -- 68
2019-05-31 10:00:00 22.1 6 Sur 14 Sur 0 -- -- 68
2019-05-31 09:00:00 19.6 0 Calma 8 Norte 0 -- -- 71
2019-05-31 08:00:00 16.5 5 Norte 8 Norte 0 -- -- 80
2019-05-31 07:00:00 16.2 4 Norte 10 Norte 0 -- -- 79
2019-05-31 06:00:00 16.4 5 Norte 9 Norte 0 -- -- 78
2019-05-31 05:00:00 16.6 4 Norte 7 Norte 0 -- -- 78
2019-05-31 04:00:00 17.3 4 Norte 7 Norte 0 -- -- 76
2019-05-31 03:00:00 17.5 4 Norte 9 Norte 0 -- -- 74
2019-05-31 02:00:00 18 4 Norte 10 Norte 0 -- -- 73
2019-05-31 01:00:00 18.7 0 Calma 8 Nordeste 0 -- -- 70
2019-05-31 00:00:00 19.7 2 Norte 14 Nordeste 0 -- -- 67
2019-05-30 23:00:00 20.3 4 Norte 15 Norte 0 -- -- 65
2019-05-30 22:00:00 20.6 5 Norte 18 Nordeste 0 -- -- 65
2019-05-30 21:00:00 20.8 9 Nordeste 22 Nordeste 0 -- -- 66
2019-05-30 20:00:00 21.6 10 Nordeste 28 Norte 0 -- -- 64
2019-05-30 19:00:00 23.9 9 Norte 24 Nordeste 0 -- -- 56
2019-05-30 18:00:00 24.2 8 Sur 19 Sudeste 0 -- -- 61
2019-05-30 17:00:00 24 9 Sur 19 Sur 0 -- -- 63
2019-05-30 16:00:00 23.9 8 Sur 22 Sudeste 0 -- -- 63
2019-05-30 15:00:00 23.8 11 Sur 20 Sudeste 0 -- -- 62
2019-05-30 14:00:00 23.6 8 Sur 17 Sur 0 -- -- 62
2019-05-30 13:00:00 23.3 10 Sur 19 Sur 0 -- -- 64
2019-05-30 12:00:00 23.2 9 Sur 18 Sur 0 -- -- 63
2019-05-30 11:00:00 22.1 8 Sur 14 Sur 0 -- -- 66
2019-05-30 10:00:00 21.7 7 Sur 17 Nordeste 0 -- -- 65
2019-05-30 09:00:00 20.1 6 Nordeste 15 Nordeste 0 -- -- 64
2019-05-30 08:00:00 16.5 4 Norte 9 Norte 0 -- -- 75
2019-05-30 07:00:00 16.4 4 Norte 9 Norte 0 -- -- 75
2019-05-30 06:00:00 17.1 4 Norte 7 Norte 0 -- -- 74
2019-05-30 05:00:00 17.8 3 Norte 6 Norte 0 -- -- 71
2019-05-30 04:00:00 18.7 2 Noroeste 12 Nordeste 0 -- -- 68
2019-05-30 03:00:00 19.5 3 Noroeste 26 Nordeste 0 -- -- 64
2019-05-30 02:00:00 19.9 8 Norte 24 Nordeste 0 -- -- 65
2019-05-30 01:00:00 19.7 12 Norte 28 Norte 0 -- -- 65
2019-05-30 00:00:00 19.8 13 Norte 28 Norte 0 -- -- 67
2019-05-29 23:00:00 19.9 9 Norte 30 Norte 0 -- -- 66
2019-05-29 22:00:00 20.2 11 Norte 34 Norte 0 -- -- 67
2019-05-29 21:00:00 20.7 12 Norte 28 Nordeste 0 -- -- 64
2019-05-29 20:00:00 21.4 12 Norte 30 Norte 0 -- -- 61
2019-05-29 19:00:00 23.5 14 Nordeste 32 Nordeste 0 -- -- 56
2019-05-29 18:00:00 25.5 9 Nordeste 28 Norte 0 -- -- 45
2019-05-29 17:00:00 26.4 9 Norte 24 Norte 0 -- -- 43
2019-05-29 16:00:00 26 10 Norte 23 Nordeste 0 -- -- 46
2019-05-29 15:00:00 25.9 8 Sur 23 Nordeste 0 -- -- 50
2019-05-29 14:00:00 25.6 11 Nordeste 25 Nordeste 0 -- -- 44
2019-05-29 13:00:00 24.7 9 Nordeste 27 Norte 0 -- -- 50
2019-05-29 12:00:00 23.9 14 Norte 32 Norte 0 -- -- 51
2019-05-29 11:00:00 22.6 14 Norte 25 Norte 0 -- -- 56
2019-05-29 10:00:00 21.8 12 Norte 29 Norte 0 -- -- 59
2019-05-29 09:00:00 20.4 14 Norte 32 Nordeste 0 -- -- 66
2019-05-29 08:00:00 19 11 Norte 32 Norte 0 -- -- 71
2019-05-29 07:00:00 19.3 9 Norte 31 Norte 0 -- -- 70
2019-05-29 06:00:00 19.5 11 Norte 30 Norte 0 -- -- 70
2019-05-29 05:00:00 19.6 14 Norte 30 Nordeste 0 -- -- 69
2019-05-29 04:00:00 19.7 13 Norte 35 Norte 0 -- -- 68
2019-05-29 03:00:00 19.4 13 Norte 33 Norte 0 -- -- 68
2019-05-29 02:00:00 19.6 14 Norte 31 Norte 0 -- -- 67
2019-05-29 01:00:00 19.8 13 Norte 31 Norte 0 -- -- 68
2019-05-29 00:00:00 19.9 10 Norte 27 Norte 0 -- -- 69
2019-05-28 23:00:00 20 13 Norte 33 Norte 0 -- -- 68
2019-05-28 22:00:00 20.1 13 Norte 35 Norte 0 -- -- 68
2019-05-28 21:00:00 20.4 15 Norte 35 Norte 0 -- -- 69
2019-05-28 20:00:00 21 14 Norte 40 Norte 0 -- -- 66
2019-05-28 19:00:00 23 16 Norte 36 Norte 0 -- -- 61
2019-05-28 18:00:00 23.9 17 Norte 37 Norte 0 -- -- 58
2019-05-28 17:00:00 24.7 17 Norte 33 Norte 0 -- -- 52
2019-05-28 16:00:00 25.7 17 Norte 37 Norte 0 -- -- 48
2019-05-28 15:00:00 25.1 19 Norte 34 Norte 0 -- -- 50
2019-05-28 14:00:00 25.5 16 Norte 30 Norte 0 -- -- 50
2019-05-28 13:00:00 25 15 Norte 31 Norte 0 -- -- 51
2019-05-28 12:00:00 24.7 12 Norte 29 Nordeste 0 -- -- 51
2019-05-28 11:00:00 23.3 14 Norte 30 Norte 0 -- -- 59
2019-05-28 10:00:00 22.2 12 Norte 27 Norte 0 -- -- 63
2019-05-28 09:00:00 20.8 15 Norte 32 Norte 0 -- -- 68
2019-05-28 08:00:00 19.5 10 Norte 25 Nordeste 0 -- -- 74
2019-05-28 07:00:00 19.6 8 Norte 17 Nordeste 0 -- -- 76
2019-05-28 06:00:00 19.7 7 Norte 23 Norte 0 -- -- 76
2019-05-28 05:00:00 19.7 8 Norte 24 Nordeste 0 -- -- 74
2019-05-28 04:00:00 19.8 9 Norte 30 Norte 0 -- -- 73
2019-05-28 03:00:00 19.9 11 Norte 31 Nordeste 0 -- -- 74
2019-05-28 02:00:00 20 14 Norte 31 Norte 0 -- -- 73
2019-05-28 01:00:00 20 11 Norte 26 Nordeste 0 -- -- 72
2019-05-28 00:00:00 20.2 10 Norte 27 Noroeste 0 -- -- 72
2019-05-27 23:00:00 20.5 10 Norte 29 Norte 0 -- -- 73
2019-05-27 22:00:00 20.6 15 Norte 34 Nordeste 0 -- -- 72
2019-05-27 21:00:00 20.9 14 Norte 33 Norte 0 -- -- 71
2019-05-27 20:00:00 21.7 12 Norte 37 Norte 0 -- -- 66
2019-05-27 19:00:00 23.2 19 Norte 37 Norte 0 -- -- 61
2019-05-27 18:00:00 24.1 21 Norte 38 Nordeste 0 -- -- 57
2019-05-27 17:00:00 25.2 20 Norte 37 Norte 0 -- -- 53
2019-05-27 16:00:00 25.8 15 Norte 32 Nordeste 0 -- -- 51
2019-05-27 15:00:00 26.5 16 Norte 33 Norte 0 -- -- 48
2019-05-27 14:00:00 28 15 Norte 30 Norte 0 -- -- 42
2019-05-27 13:00:00 28.7 11 Norte 26 Norte 0 -- -- 31
2019-05-27 12:00:00 28.5 7 Nordeste 20 Norte 0 -- -- 33
2019-05-27 11:00:00 26.5 5 Nordeste 22 Nordeste 0 -- -- 41
2019-05-27 10:00:00 24.5 9 Nordeste 24 Nordeste 0 -- -- 51
2019-05-27 09:00:00 21.6 11 Nordeste 27 Nordeste 0 -- -- 60
2019-05-27 08:00:00 20.3 10 Norte 19 Nordeste 0 -- -- 65
2019-05-27 07:00:00 20.4 9 Norte 26 Nordeste 0 -- -- 62
2019-05-27 06:00:00 20 11 Nordeste 24 Nordeste 0 -- -- 67
2019-05-27 05:00:00 20.3 9 Nordeste 24 Norte 0 -- -- 64
2019-05-27 04:00:00 20.5 12 Norte 32 Norte 0 -- -- 62
2019-05-27 03:00:00 20.1 18 Norte 35 Norte 0 -- -- 71
2019-05-27 02:00:00 19.9 18 Norte 37 Norte 0 -- -- 73
2019-05-27 01:00:00 20.2 17 Norte 36 Norte 0 -- -- 71
2019-05-27 00:00:00 20.3 15 Norte 33 Nordeste 0 -- -- 71
2019-05-26 23:00:00 20.3 11 Norte 37 Norte 0 -- -- 70
2019-05-26 22:00:00 20.8 12 Norte 26 Nordeste 0 -- -- 67
2019-05-26 21:00:00 21.6 10 Nordeste 27 Norte 0 -- -- 62
2019-05-26 20:00:00 22.6 15 Norte 29 Norte 0 -- -- 55
2019-05-26 19:00:00 24.2 15 Norte 32 Norte 0 -- -- 51
2019-05-26 18:00:00 24.9 17 Norte 38 Nordeste 0 -- -- 48
2019-05-26 17:00:00 24.9 18 Norte 43 Norte 0 -- -- 49
2019-05-26 16:00:00 24.8 22 Norte 37 Norte 0 -- -- 50
2019-05-26 15:00:00 25.4 16 Norte 30 Norte 0 -- -- 51
2019-05-26 14:00:00 25.3 16 Norte 33 Norte 0 -- -- 50
2019-05-26 13:00:00 24.5 15 Norte 39 Norte 0 -- -- 52
2019-05-26 12:00:00 23.5 15 Norte 31 Noroeste 0 -- -- 56
2019-05-26 11:00:00 22.8 12 Norte 28 Nordeste 0 -- -- 60
2019-05-26 10:00:00 21.4 10 Norte 34 Noroeste 0 -- -- 65
2019-05-26 09:00:00 20.5 13 Norte 26 Nordeste 0 -- -- 67
2019-05-26 08:00:00 19.2 8 Norte 23 Norte 0 -- -- 72
2019-05-26 07:00:00 19.1 10 Norte 26 Nordeste 0 -- -- 73
2019-05-26 06:00:00 19.1 11 Norte 21 Norte 0 -- -- 73
2019-05-26 05:00:00 19.2 6 Norte 18 Noroeste 0 -- -- 72
2019-05-26 04:00:00 19.4 5 Norte 24 Norte 0 -- -- 69
2019-05-26 03:00:00 19.5 7 Norte 37 Norte 0 -- -- 68
2019-05-26 02:00:00 19.6 6 Norte 38 Noroeste 0 -- -- 65
2019-05-26 01:00:00 19.8 16 Norte 41 Noroeste 0 -- -- 63
2019-05-26 00:00:00 19.8 11 Noroeste 40 Norte 0 -- -- 65
2019-05-25 23:00:00 19.9 22 Norte 40 Norte 0 -- -- 65
2019-05-25 22:00:00 19.9 9 Norte 24 Norte 0 -- -- 66
2019-05-25 21:00:00 20.1 6 Nordeste 23 Norte 0 -- -- 68
2019-05-25 20:00:00 20.5 10 Norte 31 Norte 0 -- -- 67
2019-05-25 19:00:00 21.7 12 Norte 36 Norte 0 -- -- 63
2019-05-25 18:00:00 23.1 15 Norte 30 Norte 0 -- -- 58
2019-05-25 17:00:00 23.6 16 Norte 39 Noroeste 0 -- -- 56
2019-05-25 16:00:00 22.9 17 Norte 35 Nordeste 0 -- -- 59
2019-05-25 15:00:00 22.5 11 Norte 32 Norte 0 -- -- 65
2019-05-25 14:00:00 22.4 12 Norte 32 Norte 0 -- -- 67
2019-05-25 13:00:00 22.8 12 Norte 28 Norte 0 -- -- 64
2019-05-25 12:00:00 21.6 13 Norte 28 Norte 0 -- -- 70
2019-05-25 11:00:00 21.3 8 Norte 26 Norte 0 -- -- 68
2019-05-25 10:00:00 20.7 11 Norte 25 Norte 0 -- -- 73
2019-05-25 09:00:00 19.5 13 Norte 27 Nordeste 0 -- -- 78
2019-05-25 08:00:00 19.3 10 Norte 28 Norte 0 -- -- 79
2019-05-25 07:00:00 19.5 9 Norte 28 Noroeste 0 -- -- 78
2019-05-25 06:00:00 19.3 9 Norte 28 Norte 0 -- -- 74
2019-05-25 05:00:00 19.2 10 Norte 33 Norte 0 -- -- 75
2019-05-25 04:00:00 19.4 13 Norte 31 Noroeste 0 -- -- 73
2019-05-25 03:00:00 19.6 10 Norte 28 Noroeste 0 -- -- 74
2019-05-25 02:00:00 19.5 11 Norte 27 Norte 0 -- -- 73
2019-05-25 01:00:00 19.5 10 Norte 24 Noroeste 0 -- -- 71
2019-05-25 00:00:00 19.7 12 Norte 28 Norte 0 -- -- 71
2019-05-24 23:00:00 19.8 11 Norte 30 Noroeste 0 -- -- 71
2019-05-24 22:00:00 20 10 Norte 27 Norte 0 -- -- 71
2019-05-24 21:00:00 20.3 12 Norte 28 Norte 0 -- -- 71
2019-05-24 20:00:00 20.9 15 Norte 33 Noroeste 0 -- -- 67
2019-05-24 19:00:00 22.9 14 Norte 36 Norte 0 -- -- 61
2019-05-24 18:00:00 23.7 12 Norte 32 Norte 0 -- -- 57
2019-05-24 17:00:00 24 14 Norte 41 Norte 0 -- -- 58
2019-05-24 16:00:00 24.4 13 Norte 30 Norte 0 -- -- 56
2019-05-24 15:00:00 23.9 16 Norte 50 Norte 0 -- -- 58
2019-05-24 14:00:00 23.7 16 Norte 35 Norte 0 -- -- 59
2019-05-24 13:00:00 23.6 15 Norte 37 Norte 0 -- -- 60
2019-05-24 12:00:00 23.2 15 Norte 35 Norte 0 -- -- 61
2019-05-24 11:00:00 22.5 15 Norte 32 Norte 0 -- -- 61
2019-05-24 10:00:00 21.8 13 Norte 32 Norte 0 -- -- 65
2019-05-24 09:00:00 20.7 12 Norte 28 Noroeste 0 -- -- 69
2019-05-24 08:00:00 19.4 8 Norte 23 Noroeste 0 -- -- 73
2019-05-24 07:00:00 19.1 9 Norte 37 Norte 0 -- -- 73
2019-05-24 06:00:00 19.2 21 Norte 44 Norte 0 -- -- 70
2019-05-24 05:00:00 19.1 14 Norte 37 Nordeste 0 -- -- 74
2019-05-24 04:00:00 19.1 14 Norte 37 Norte 0 -- -- 73
2019-05-24 03:00:00 19.2 17 Norte 37 Norte 0 -- -- 73
2019-05-24 02:00:00 19.3 10 Norte 33 Norte 0 -- -- 73
2019-05-24 01:00:00 19.5 11 Norte 28 Noroeste 0 -- -- 74
2019-05-24 00:00:00 19.6 10 Norte 29 Norte 0 -- -- 71
2019-05-23 23:00:00 19.8 8 Norte 30 Norte 0 -- -- 68
2019-05-23 22:00:00 19.9 8 Norte 31 Nordeste 0 -- -- 66
2019-05-23 21:00:00 20 9 Norte 30 Norte 0 -- -- 67
2019-05-23 20:00:00 20.5 8 Norte 38 Norte 0 -- -- 64
2019-05-23 19:00:00 21.2 10 Norte 33 Noroeste 0 -- -- 60
2019-05-23 18:00:00 22 9 Norte 30 Norte 0 -- -- 64
2019-05-23 17:00:00 23.3 10 Norte 30 Norte 0 -- -- 58
2019-05-23 16:00:00 22.8 12 Norte 31 Norte 0 -- -- 62
2019-05-23 15:00:00 23.8 12 Norte 31 Norte 0 -- -- 57
2019-05-23 14:00:00 22.8 10 Norte 32 Nordeste 0 -- -- 62
2019-05-23 13:00:00 23 13 Norte 32 Norte 0 -- -- 56
2019-05-23 12:00:00 23.5 10 Norte 37 Norte 0 -- -- 56
2019-05-23 11:00:00 22.5 12 Norte 36 Norte 0 -- -- 59
2019-05-23 10:00:00 21 12 Norte 30 Noroeste 0 -- -- 68
2019-05-23 09:00:00 20.3 12 Norte 37 Norte 0 -- -- 70
2019-05-23 08:00:00 19.9 9 Norte 28 Este 0 -- -- 69
2019-05-23 07:00:00 19.9 15 Norte 34 Nordeste 0 -- -- 70
2019-05-23 06:00:00 19.9 6 Noroeste 34 Nordeste 0 -- -- 67
2019-05-23 05:00:00 19.8 8 Norte 33 Norte 0 -- -- 71
2019-05-23 04:00:00 19.7 8 Norte 34 Noroeste 0 -- -- 75
2019-05-23 03:00:00 19.8 9 Norte 30 Oeste 0 -- -- 71
2019-05-23 02:00:00 19.9 9 Norte 35 Nordeste 0 -- -- 68
2019-05-23 01:00:00 19.5 10 Norte 35 Norte 0 -- -- 75
2019-05-23 00:00:00 20.4 7 Norte 26 Noroeste 0 -- -- 64
2019-05-22 23:00:00 20.4 8 Norte 27 Norte 0 -- -- 68
2019-05-22 22:00:00 20.1 13 Norte 45 Norte 0 -- -- 75
2019-05-22 21:00:00 20.8 9 Norte 33 Norte 0 -- -- 68
2019-05-22 20:00:00 21.2 9 Norte 30 Noroeste 0 -- -- 67
2019-05-22 19:00:00 21.8 8 Norte 24 Nordeste 0 -- -- 66
2019-05-22 18:00:00 21.9 12 Norte 29 Norte 0 -- -- 66
2019-05-22 17:00:00 22.6 8 Norte 26 Norte 0 -- -- 62
2019-05-22 16:00:00 24.2 5 Norte 31 Norte 0 -- -- 53
2019-05-22 15:00:00 23.3 11 Norte 39 Norte 0 -- -- 54
2019-05-22 14:00:00 22.7 13 Norte 44 Norte 0 -- -- 57
2019-05-22 13:00:00 23 14 Norte 30 Norte 0 -- -- 57
2019-05-22 12:00:00 22.2 10 Norte 32 Nordeste 0 -- -- 60
2019-05-22 11:00:00 20.5 13 Norte 32 Norte 0 -- -- 68
2019-05-22 10:00:00 19.3 11 Norte 33 Norte 0 -- -- 80
2019-05-22 09:00:00 19.4 8 Norte 26 Nordeste 0 -- -- 78
2019-05-22 08:00:00 19.7 7 Nordeste 24 Norte 0 -- -- 71
2019-05-22 07:00:00 19.8 9 Norte 23 Nordeste 0 -- -- 71
2019-05-22 06:00:00 19.9 9 Norte 26 Nordeste 0 -- -- 71
2019-05-22 05:00:00 20 8 Norte 30 Noroeste 0 -- -- 73
2019-05-22 04:00:00 20 7 Norte 21 Norte 0 -- -- 74
2019-05-22 03:00:00 19.8 6 Norte 27 Noroeste 0 -- -- 72
2019-05-22 02:00:00 20 6 Norte 25 Norte 0 -- -- 70
2019-05-22 01:00:00 20.1 9 Norte 27 Noroeste 0 -- -- 68
2019-05-22 00:00:00 20.1 6 Norte 27 Norte 0 -- -- 71
2019-05-21 23:00:00 20.1 8 Norte 27 Norte 0 -- -- 70
2019-05-21 22:00:00 20.1 9 Norte 24 Norte 0 -- -- 67
2019-05-21 21:00:00 20.3 8 Norte 24 Noroeste 0 -- -- 69
2019-05-21 20:00:00 20.9 6 Norte 31 Norte 0 -- -- 65
2019-05-21 19:00:00 21.9 9 Norte 23 Noroeste 0 -- -- 62
2019-05-21 18:00:00 22.6 8 Norte 27 Norte 0 -- -- 59
2019-05-21 17:00:00 22.5 10 Norte 26 Norte 0 -- -- 58
2019-05-21 16:00:00 22.5 8 Norte 26 Norte 0 -- -- 59
2019-05-21 15:00:00 22.1 9 Norte 27 Norte 0 -- -- 58
2019-05-21 14:00:00 22.1 7 Norte 23 Norte 0 -- -- 58
2019-05-21 13:00:00 22.4 7 Norte 28 Nordeste 0 -- -- 57
2019-05-21 12:00:00 21.1 9 Norte 24 Norte 0 -- -- 61
2019-05-21 11:00:00 21.3 6 Norte 23 Norte 0 -- -- 59
2019-05-21 10:00:00 20.6 4 Norte 17 Norte 0 -- -- 62
2019-05-21 09:00:00 19.3 10 Norte 26 Norte 0 -- -- 70
2019-05-21 08:00:00 19.5 5 Norte 20 Nordeste 0 -- -- 67
2019-05-21 07:00:00 19.5 5 Norte 26 Norte 0 -- -- 71
2019-05-21 06:00:00 19.3 6 Norte 19 Nordeste 0 -- -- 68
2019-05-21 05:00:00 19.6 7 Norte 25 Norte 0 -- -- 69
2019-05-21 04:00:00 19.5 6 Norte 15 Este 0 -- -- 69
2019-05-21 03:00:00 19.4 4 Norte 17 Noroeste 0 -- -- 68
2019-05-21 02:00:00 19.3 5 Norte 25 Nordeste 0 -- -- 69
2019-05-21 01:00:00 19.5 9 Norte 26 Norte 0 -- -- 69
2019-05-21 00:00:00 19.6 8 Norte 27 Noroeste 0 -- -- 68